sensor_id;sensor_type;location;lat;lon;timestamp;P1;durP1;ratioP1;P2;durP2;ratioP2
18610;SDS011;9435;52.122;5.502;2023-03-29T00:01:32;5.75;;;2.90;;
18610;SDS011;9435;52.122;5.502;2023-03-29T00:04:00;5.50;;;3.00;;
18610;SDS011;9435;52.122;5.502;2023-03-29T00:06:28;5.55;;;2.60;;
18610;SDS011;9435;52.122;5.502;2023-03-29T00:08:57;8.75;;;3.33;;
18610;SDS011;9435;52.122;5.502;2023-03-29T00:11:25;7.00;;;3.20;;
18610;SDS011;9435;52.122;5.502;2023-03-29T00:13:52;5.60;;;3.17;;
18610;SDS011;9435;52.122;5.502;2023-03-29T00:16:21;9.05;;;3.30;;
18610;SDS011;9435;52.122;5.502;2023-03-29T00:18:48;7.25;;;3.35;;
18610;SDS011;9435;52.122;5.502;2023-03-29T00:21:15;5.88;;;3.13;;
18610;SDS011;9435;52.122;5.502;2023-03-29T00:23:42;6.10;;;2.97;;
18610;SDS011;9435;52.122;5.502;2023-03-29T00:26:09;6.55;;;3.10;;
18610;SDS011;9435;52.122;5.502;2023-03-29T00:28:36;6.40;;;3.40;;
18610;SDS011;9435;52.122;5.502;2023-03-29T00:31:05;5.97;;;3.13;;
18610;SDS011;9435;52.122;5.502;2023-03-29T00:33:34;9.70;;;3.35;;
18610;SDS011;9435;52.122;5.502;2023-03-29T00:36:04;8.63;;;3.30;;
18610;SDS011;9435;52.122;5.502;2023-03-29T00:38:33;8.75;;;3.10;;
18610;SDS011;9435;52.122;5.502;2023-03-29T00:41:00;9.93;;;3.15;;
18610;SDS011;9435;52.122;5.502;2023-03-29T00:43:27;9.63;;;3.42;;
18610;SDS011;9435;52.122;5.502;2023-03-29T00:45:55;7.70;;;3.47;;
18610;SDS011;9435;52.122;5.502;2023-03-29T00:48:22;7.25;;;3.20;;
18610;SDS011;9435;52.122;5.502;2023-03-29T00:50:56;7.70;;;3.58;;
18610;SDS011;9435;52.122;5.502;2023-03-29T00:53:26;7.68;;;3.35;;
18610;SDS011;9435;52.122;5.502;2023-03-29T00:55:57;7.78;;;3.40;;
18610;SDS011;9435;52.122;5.502;2023-03-29T00:58:27;6.85;;;3.15;;
18610;SDS011;9435;52.122;5.502;2023-03-29T01:01:00;6.40;;;3.35;;
18610;SDS011;9435;52.122;5.502;2023-03-29T01:03:33;8.30;;;3.25;;
18610;SDS011;9435;52.122;5.502;2023-03-29T01:06:07;7.10;;;3.30;;
18610;SDS011;9435;52.122;5.502;2023-03-29T01:08:38;8.00;;;3.30;;
18610;SDS011;9435;52.122;5.502;2023-03-29T01:11:07;6.20;;;3.35;;
18610;SDS011;9435;52.122;5.502;2023-03-29T01:13:41;7.20;;;3.42;;
18610;SDS011;9435;52.122;5.502;2023-03-29T01:16:12;7.75;;;3.40;;
18610;SDS011;9435;52.122;5.502;2023-03-29T01:18:43;8.10;;;3.60;;
18610;SDS011;9435;52.122;5.502;2023-03-29T01:21:18;7.45;;;3.38;;
18610;SDS011;9435;52.122;5.502;2023-03-29T01:23:53;9.52;;;3.50;;
18610;SDS011;9435;52.122;5.502;2023-03-29T01:26:42;11.95;;;3.55;;
18610;SDS011;9435;52.122;5.502;2023-03-29T01:29:20;8.57;;;3.55;;
18610;SDS011;9435;52.122;5.502;2023-03-29T01:31:53;6.15;;;3.10;;
18610;SDS011;9435;52.122;5.502;2023-03-29T01:34:26;8.52;;;3.20;;
18610;SDS011;9435;52.122;5.502;2023-03-29T01:36:57;6.72;;;3.15;;
18610;SDS011;9435;52.122;5.502;2023-03-29T01:39:29;7.25;;;3.17;;
18610;SDS011;9435;52.122;5.502;2023-03-29T01:42:02;7.28;;;3.30;;
18610;SDS011;9435;52.122;5.502;2023-03-29T01:44:46;8.60;;;3.10;;
18610;SDS011;9435;52.122;5.502;2023-03-29T01:47:18;9.60;;;3.40;;
18610;SDS011;9435;52.122;5.502;2023-03-29T01:49:52;7.55;;;3.15;;
18610;SDS011;9435;52.122;5.502;2023-03-29T01:52:28;6.82;;;3.03;;
18610;SDS011;9435;52.122;5.502;2023-03-29T01:55:00;6.50;;;3.20;;
18610;SDS011;9435;52.122;5.502;2023-03-29T01:57:30;6.15;;;2.92;;
18610;SDS011;9435;52.122;5.502;2023-03-29T02:00:00;8.68;;;3.20;;
18610;SDS011;9435;52.122;5.502;2023-03-29T02:02:34;6.38;;;3.30;;
18610;SDS011;9435;52.122;5.502;2023-03-29T02:05:03;8.02;;;3.25;;
18610;SDS011;9435;52.122;5.502;2023-03-29T02:07:34;6.63;;;3.05;;
18610;SDS011;9435;52.122;5.502;2023-03-29T02:10:05;6.53;;;3.05;;
18610;SDS011;9435;52.122;5.502;2023-03-29T02:12:34;10.75;;;3.35;;
18610;SDS011;9435;52.122;5.502;2023-03-29T02:15:03;7.53;;;3.20;;
18610;SDS011;9435;52.122;5.502;2023-03-29T02:17:31;7.57;;;3.33;;
18610;SDS011;9435;52.122;5.502;2023-03-29T02:19:59;7.90;;;3.50;;
18610;SDS011;9435;52.122;5.502;2023-03-29T02:22:40;7.93;;;3.17;;
18610;SDS011;9435;52.122;5.502;2023-03-29T02:25:12;7.47;;;3.70;;
18610;SDS011;9435;52.122;5.502;2023-03-29T02:27:40;9.13;;;3.70;;
18610;SDS011;9435;52.122;5.502;2023-03-29T02:30:09;7.80;;;3.47;;
18610;SDS011;9435;52.122;5.502;2023-03-29T02:32:40;10.40;;;3.42;;
18610;SDS011;9435;52.122;5.502;2023-03-29T02:35:16;7.68;;;3.60;;
18610;SDS011;9435;52.122;5.502;2023-03-29T02:37:49;7.82;;;3.97;;
18610;SDS011;9435;52.122;5.502;2023-03-29T02:40:20;10.73;;;3.80;;
18610;SDS011;9435;52.122;5.502;2023-03-29T02:42:50;7.88;;;3.80;;
18610;SDS011;9435;52.122;5.502;2023-03-29T02:45:22;8.93;;;3.80;;
18610;SDS011;9435;52.122;5.502;2023-03-29T02:47:52;7.25;;;3.78;;
18610;SDS011;9435;52.122;5.502;2023-03-29T02:50:21;9.00;;;3.78;;
18610;SDS011;9435;52.122;5.502;2023-03-29T02:52:50;9.95;;;3.85;;
18610;SDS011;9435;52.122;5.502;2023-03-29T02:55:21;8.57;;;4.00;;
18610;SDS011;9435;52.122;5.502;2023-03-29T02:57:50;8.98;;;3.67;;
18610;SDS011;9435;52.122;5.502;2023-03-29T03:00:17;10.13;;;3.78;;
18610;SDS011;9435;52.122;5.502;2023-03-29T03:02:48;8.77;;;4.05;;
18610;SDS011;9435;52.122;5.502;2023-03-29T03:05:16;8.38;;;3.97;;
18610;SDS011;9435;52.122;5.502;2023-03-29T03:07:43;8.98;;;4.05;;
18610;SDS011;9435;52.122;5.502;2023-03-29T03:10:11;8.23;;;3.97;;
18610;SDS011;9435;52.122;5.502;2023-03-29T03:12:38;8.48;;;3.78;;
18610;SDS011;9435;52.122;5.502;2023-03-29T03:15:05;9.32;;;4.07;;
18610;SDS011;9435;52.122;5.502;2023-03-29T03:17:33;8.77;;;4.00;;
18610;SDS011;9435;52.122;5.502;2023-03-29T03:20:07;10.50;;;4.13;;
18610;SDS011;9435;52.122;5.502;2023-03-29T03:22:38;9.18;;;4.18;;
18610;SDS011;9435;52.122;5.502;2023-03-29T03:25:06;11.07;;;4.15;;
18610;SDS011;9435;52.122;5.502;2023-03-29T03:27:35;10.63;;;4.32;;
18610;SDS011;9435;52.122;5.502;2023-03-29T03:30:04;10.70;;;4.30;;
18610;SDS011;9435;52.122;5.502;2023-03-29T03:32:33;10.32;;;4.50;;
18610;SDS011;9435;52.122;5.502;2023-03-29T03:35:00;8.25;;;4.50;;
18610;SDS011;9435;52.122;5.502;2023-03-29T03:37:30;9.20;;;4.30;;
18610;SDS011;9435;52.122;5.502;2023-03-29T03:39:57;9.38;;;4.35;;
18610;SDS011;9435;52.122;5.502;2023-03-29T03:42:26;11.00;;;4.35;;
18610;SDS011;9435;52.122;5.502;2023-03-29T03:44:53;13.25;;;4.28;;
18610;SDS011;9435;52.122;5.502;2023-03-29T03:47:20;9.82;;;4.18;;
18610;SDS011;9435;52.122;5.502;2023-03-29T03:49:47;8.52;;;4.43;;
18610;SDS011;9435;52.122;5.502;2023-03-29T03:52:15;9.48;;;4.40;;
18610;SDS011;9435;52.122;5.502;2023-03-29T03:54:44;8.18;;;4.43;;
18610;SDS011;9435;52.122;5.502;2023-03-29T03:57:12;8.75;;;4.30;;
18610;SDS011;9435;52.122;5.502;2023-03-29T03:59:39;10.82;;;4.43;;
18610;SDS011;9435;52.122;5.502;2023-03-29T04:02:06;9.77;;;4.70;;
18610;SDS011;9435;52.122;5.502;2023-03-29T04:04:34;9.35;;;4.55;;
18610;SDS011;9435;52.122;5.502;2023-03-29T04:07:01;11.60;;;4.80;;
18610;SDS011;9435;52.122;5.502;2023-03-29T04:09:28;12.68;;;4.80;;
18610;SDS011;9435;52.122;5.502;2023-03-29T04:11:57;9.68;;;4.38;;
18610;SDS011;9435;52.122;5.502;2023-03-29T04:14:26;11.45;;;4.60;;
18610;SDS011;9435;52.122;5.502;2023-03-29T04:16:56;12.38;;;5.00;;
18610;SDS011;9435;52.122;5.502;2023-03-29T04:19:23;10.68;;;4.80;;
18610;SDS011;9435;52.122;5.502;2023-03-29T04:21:50;11.68;;;4.60;;
18610;SDS011;9435;52.122;5.502;2023-03-29T04:24:17;9.48;;;4.35;;
18610;SDS011;9435;52.122;5.502;2023-03-29T04:26:46;13.18;;;5.07;;
18610;SDS011;9435;52.122;5.502;2023-03-29T04:29:14;10.00;;;4.30;;
18610;SDS011;9435;52.122;5.502;2023-03-29T04:31:42;11.32;;;4.78;;
18610;SDS011;9435;52.122;5.502;2023-03-29T04:34:09;8.10;;;4.38;;
18610;SDS011;9435;52.122;5.502;2023-03-29T04:36:36;10.93;;;4.32;;
18610;SDS011;9435;52.122;5.502;2023-03-29T04:39:03;11.45;;;4.60;;
18610;SDS011;9435;52.122;5.502;2023-03-29T04:41:31;11.70;;;4.47;;
18610;SDS011;9435;52.122;5.502;2023-03-29T04:43:59;10.27;;;4.07;;
18610;SDS011;9435;52.122;5.502;2023-03-29T04:46:28;13.15;;;4.50;;
18610;SDS011;9435;52.122;5.502;2023-03-29T04:48:56;8.23;;;4.43;;
18610;SDS011;9435;52.122;5.502;2023-03-29T04:51:24;10.90;;;4.80;;
18610;SDS011;9435;52.122;5.502;2023-03-29T04:53:51;11.40;;;4.13;;
18610;SDS011;9435;52.122;5.502;2023-03-29T04:56:18;8.88;;;4.93;;
18610;SDS011;9435;52.122;5.502;2023-03-29T04:58:47;11.80;;;4.28;;
18610;SDS011;9435;52.122;5.502;2023-03-29T05:01:15;8.02;;;4.18;;
18610;SDS011;9435;52.122;5.502;2023-03-29T05:03:44;10.32;;;4.47;;
18610;SDS011;9435;52.122;5.502;2023-03-29T05:06:11;11.13;;;4.53;;
18610;SDS011;9435;52.122;5.502;2023-03-29T05:08:38;9.50;;;4.05;;
18610;SDS011;9435;52.122;5.502;2023-03-29T05:11:06;9.73;;;4.40;;
18610;SDS011;9435;52.122;5.502;2023-03-29T05:13:34;8.55;;;3.78;;
18610;SDS011;9435;52.122;5.502;2023-03-29T05:16:02;11.57;;;4.22;;
18610;SDS011;9435;52.122;5.502;2023-03-29T05:18:30;11.13;;;5.35;;
18610;SDS011;9435;52.122;5.502;2023-03-29T05:20:58;10.90;;;4.18;;
18610;SDS011;9435;52.122;5.502;2023-03-29T05:23:25;11.32;;;4.68;;
18610;SDS011;9435;52.122;5.502;2023-03-29T05:25:53;8.48;;;4.20;;
18610;SDS011;9435;52.122;5.502;2023-03-29T05:28:20;7.85;;;4.22;;
18610;SDS011;9435;52.122;5.502;2023-03-29T05:30:57;8.45;;;4.70;;
18610;SDS011;9435;52.122;5.502;2023-03-29T05:33:25;8.38;;;4.28;;
18610;SDS011;9435;52.122;5.502;2023-03-29T05:35:58;8.73;;;4.60;;
18610;SDS011;9435;52.122;5.502;2023-03-29T05:38:26;11.82;;;4.70;;
18610;SDS011;9435;52.122;5.502;2023-03-29T05:40:53;10.27;;;4.25;;
18610;SDS011;9435;52.122;5.502;2023-03-29T05:43:21;11.38;;;4.50;;
18610;SDS011;9435;52.122;5.502;2023-03-29T05:45:49;8.30;;;4.10;;
18610;SDS011;9435;52.122;5.502;2023-03-29T05:48:17;9.30;;;4.68;;
18610;SDS011;9435;52.122;5.502;2023-03-29T05:50:45;8.88;;;4.28;;
18610;SDS011;9435;52.122;5.502;2023-03-29T05:53:15;9.90;;;4.32;;
18610;SDS011;9435;52.122;5.502;2023-03-29T05:55:42;9.30;;;4.57;;
18610;SDS011;9435;52.122;5.502;2023-03-29T05:58:10;10.57;;;4.50;;
18610;SDS011;9435;52.122;5.502;2023-03-29T06:00:38;8.82;;;4.40;;
18610;SDS011;9435;52.122;5.502;2023-03-29T06:03:06;10.05;;;4.80;;
18610;SDS011;9435;52.122;5.502;2023-03-29T06:05:33;9.38;;;4.10;;
18610;SDS011;9435;52.122;5.502;2023-03-29T06:08:01;10.73;;;4.32;;
18610;SDS011;9435;52.122;5.502;2023-03-29T06:10:30;11.25;;;4.30;;
18610;SDS011;9435;52.122;5.502;2023-03-29T06:12:57;12.00;;;4.60;;
18610;SDS011;9435;52.122;5.502;2023-03-29T06:15:24;11.07;;;4.47;;
18610;SDS011;9435;52.122;5.502;2023-03-29T06:17:51;11.93;;;4.43;;
18610;SDS011;9435;52.122;5.502;2023-03-29T06:20:19;9.60;;;4.80;;
18610;SDS011;9435;52.122;5.502;2023-03-29T06:22:46;9.90;;;4.80;;
18610;SDS011;9435;52.122;5.502;2023-03-29T06:25:13;10.45;;;5.10;;
18610;SDS011;9435;52.122;5.502;2023-03-29T06:27:43;9.90;;;4.40;;
18610;SDS011;9435;52.122;5.502;2023-03-29T06:30:11;10.25;;;4.90;;
18610;SDS011;9435;52.122;5.502;2023-03-29T06:32:39;10.98;;;4.55;;
18610;SDS011;9435;52.122;5.502;2023-03-29T06:35:07;10.00;;;4.50;;
18610;SDS011;9435;52.122;5.502;2023-03-29T06:37:35;13.02;;;4.70;;
18610;SDS011;9435;52.122;5.502;2023-03-29T06:40:04;9.45;;;4.65;;
18610;SDS011;9435;52.122;5.502;2023-03-29T06:42:34;10.90;;;4.65;;
18610;SDS011;9435;52.122;5.502;2023-03-29T06:45:02;9.63;;;4.70;;
18610;SDS011;9435;52.122;5.502;2023-03-29T06:47:30;10.50;;;4.47;;
18610;SDS011;9435;52.122;5.502;2023-03-29T06:49:57;9.48;;;4.65;;
18610;SDS011;9435;52.122;5.502;2023-03-29T06:52:24;9.82;;;4.55;;
18610;SDS011;9435;52.122;5.502;2023-03-29T06:54:51;11.48;;;5.13;;
18610;SDS011;9435;52.122;5.502;2023-03-29T06:57:18;13.50;;;5.30;;
18610;SDS011;9435;52.122;5.502;2023-03-29T06:59:45;13.18;;;5.10;;
18610;SDS011;9435;52.122;5.502;2023-03-29T07:02:14;11.20;;;5.18;;
18610;SDS011;9435;52.122;5.502;2023-03-29T07:04:41;13.32;;;5.80;;
18610;SDS011;9435;52.122;5.502;2023-03-29T07:07:08;14.73;;;5.90;;
18610;SDS011;9435;52.122;5.502;2023-03-29T07:09:44;12.57;;;5.57;;
18610;SDS011;9435;52.122;5.502;2023-03-29T07:12:18;11.85;;;5.72;;
18610;SDS011;9435;52.122;5.502;2023-03-29T07:14:46;10.30;;;5.40;;
18610;SDS011;9435;52.122;5.502;2023-03-29T07:17:15;13.10;;;5.82;;
18610;SDS011;9435;52.122;5.502;2023-03-29T07:19:42;12.27;;;5.90;;
18610;SDS011;9435;52.122;5.502;2023-03-29T07:22:09;17.70;;;6.07;;
18610;SDS011;9435;52.122;5.502;2023-03-29T07:24:37;14.95;;;6.03;;
18610;SDS011;9435;52.122;5.502;2023-03-29T07:27:04;15.80;;;6.07;;
18610;SDS011;9435;52.122;5.502;2023-03-29T07:29:32;12.80;;;5.90;;
18610;SDS011;9435;52.122;5.502;2023-03-29T07:32:00;14.60;;;5.70;;
18610;SDS011;9435;52.122;5.502;2023-03-29T07:34:28;12.70;;;5.70;;
18610;SDS011;9435;52.122;5.502;2023-03-29T07:36:56;11.38;;;5.63;;
18610;SDS011;9435;52.122;5.502;2023-03-29T07:39:23;14.00;;;5.97;;
18610;SDS011;9435;52.122;5.502;2023-03-29T07:41:51;13.85;;;6.32;;
18610;SDS011;9435;52.122;5.502;2023-03-29T07:44:21;11.82;;;5.57;;
18610;SDS011;9435;52.122;5.502;2023-03-29T07:46:49;12.35;;;5.82;;
18610;SDS011;9435;52.122;5.502;2023-03-29T07:49:16;11.75;;;6.20;;
18610;SDS011;9435;52.122;5.502;2023-03-29T07:51:44;12.55;;;6.15;;
18610;SDS011;9435;52.122;5.502;2023-03-29T07:54:11;11.77;;;6.22;;
18610;SDS011;9435;52.122;5.502;2023-03-29T07:56:38;12.95;;;6.10;;
18610;SDS011;9435;52.122;5.502;2023-03-29T07:59:06;13.88;;;6.50;;
18610;SDS011;9435;52.122;5.502;2023-03-29T08:01:33;14.55;;;5.93;;
18610;SDS011;9435;52.122;5.502;2023-03-29T08:04:00;15.48;;;6.50;;
18610;SDS011;9435;52.122;5.502;2023-03-29T08:06:28;12.00;;;6.40;;
18610;SDS011;9435;52.122;5.502;2023-03-29T08:08:57;16.20;;;6.72;;
18610;SDS011;9435;52.122;5.502;2023-03-29T08:11:24;12.60;;;6.60;;
18610;SDS011;9435;52.122;5.502;2023-03-29T08:13:51;17.65;;;7.13;;
18610;SDS011;9435;52.122;5.502;2023-03-29T08:16:19;14.27;;;7.05;;
18610;SDS011;9435;52.122;5.502;2023-03-29T08:18:46;13.63;;;6.70;;
18610;SDS011;9435;52.122;5.502;2023-03-29T08:21:13;17.17;;;7.30;;
18610;SDS011;9435;52.122;5.502;2023-03-29T08:23:40;15.00;;;7.20;;
18610;SDS011;9435;52.122;5.502;2023-03-29T08:26:08;16.70;;;7.43;;
18610;SDS011;9435;52.122;5.502;2023-03-29T08:28:35;19.25;;;8.20;;
18610;SDS011;9435;52.122;5.502;2023-03-29T08:31:02;15.00;;;7.45;;
18610;SDS011;9435;52.122;5.502;2023-03-29T08:33:30;19.60;;;7.82;;
18610;SDS011;9435;52.122;5.502;2023-03-29T08:35:57;17.65;;;8.23;;
18610;SDS011;9435;52.122;5.502;2023-03-29T08:38:24;16.02;;;7.95;;
18610;SDS011;9435;52.122;5.502;2023-03-29T08:40:51;17.65;;;8.02;;
18610;SDS011;9435;52.122;5.502;2023-03-29T08:43:36;15.63;;;7.82;;
18610;SDS011;9435;52.122;5.502;2023-03-29T08:46:25;18.48;;;7.65;;
18610;SDS011;9435;52.122;5.502;2023-03-29T08:48:58;14.95;;;7.47;;
18610;SDS011;9435;52.122;5.502;2023-03-29T08:51:28;17.10;;;7.68;;
18610;SDS011;9435;52.122;5.502;2023-03-29T08:53:58;17.48;;;7.88;;
18610;SDS011;9435;52.122;5.502;2023-03-29T08:56:30;17.02;;;8.32;;
18610;SDS011;9435;52.122;5.502;2023-03-29T08:59:02;16.98;;;8.00;;
18610;SDS011;9435;52.122;5.502;2023-03-29T09:01:40;20.75;;;8.40;;
18610;SDS011;9435;52.122;5.502;2023-03-29T09:04:08;19.83;;;8.82;;
18610;SDS011;9435;52.122;5.502;2023-03-29T09:06:41;18.48;;;8.40;;
18610;SDS011;9435;52.122;5.502;2023-03-29T09:09:11;18.48;;;8.82;;
18610;SDS011;9435;52.122;5.502;2023-03-29T09:11:44;19.38;;;8.63;;
18610;SDS011;9435;52.122;5.502;2023-03-29T09:14:24;18.13;;;8.65;;
18610;SDS011;9435;52.122;5.502;2023-03-29T09:17:04;15.93;;;8.90;;
18610;SDS011;9435;52.122;5.502;2023-03-29T09:19:42;18.67;;;9.27;;
18610;SDS011;9435;52.122;5.502;2023-03-29T09:22:16;18.73;;;9.43;;
18610;SDS011;9435;52.122;5.502;2023-03-29T09:24:59;20.17;;;9.95;;
18610;SDS011;9435;52.122;5.502;2023-03-29T09:27:34;20.70;;;10.20;;
18610;SDS011;9435;52.122;5.502;2023-03-29T09:30:12;22.95;;;10.45;;
18610;SDS011;9435;52.122;5.502;2023-03-29T09:32:46;21.98;;;10.25;;
18610;SDS011;9435;52.122;5.502;2023-03-29T09:35:20;20.48;;;9.80;;
18610;SDS011;9435;52.122;5.502;2023-03-29T09:37:49;23.63;;;10.30;;
18610;SDS011;9435;52.122;5.502;2023-03-29T09:40:18;20.98;;;10.07;;
18610;SDS011;9435;52.122;5.502;2023-03-29T09:42:48;23.20;;;10.60;;
18610;SDS011;9435;52.122;5.502;2023-03-29T09:45:18;23.42;;;10.40;;
18610;SDS011;9435;52.122;5.502;2023-03-29T09:47:46;22.85;;;10.95;;
18610;SDS011;9435;52.122;5.502;2023-03-29T09:50:18;21.13;;;10.77;;
18610;SDS011;9435;52.122;5.502;2023-03-29T09:55:26;19.52;;;10.77;;
18610;SDS011;9435;52.122;5.502;2023-03-29T09:57:57;23.42;;;11.27;;
18610;SDS011;9435;52.122;5.502;2023-03-29T10:00:28;20.63;;;11.43;;
18610;SDS011;9435;52.122;5.502;2023-03-29T10:02:55;22.98;;;11.63;;
18610;SDS011;9435;52.122;5.502;2023-03-29T10:05:24;20.50;;;11.82;;
18610;SDS011;9435;52.122;5.502;2023-03-29T10:07:56;21.42;;;11.88;;
18610;SDS011;9435;52.122;5.502;2023-03-29T10:10:26;22.42;;;11.55;;
18610;SDS011;9435;52.122;5.502;2023-03-29T10:12:56;21.23;;;12.23;;
18610;SDS011;9435;52.122;5.502;2023-03-29T10:15:26;21.73;;;11.85;;
18610;SDS011;9435;52.122;5.502;2023-03-29T10:17:59;22.27;;;11.43;;
18610;SDS011;9435;52.122;5.502;2023-03-29T10:20:28;23.10;;;12.10;;
18610;SDS011;9435;52.122;5.502;2023-03-29T10:22:56;22.33;;;11.55;;
18610;SDS011;9435;52.122;5.502;2023-03-29T10:25:25;23.10;;;11.40;;
18610;SDS011;9435;52.122;5.502;2023-03-29T10:27:54;25.13;;;11.60;;
18610;SDS011;9435;52.122;5.502;2023-03-29T10:30:31;21.05;;;11.80;;
18610;SDS011;9435;52.122;5.502;2023-03-29T10:33:01;21.75;;;11.07;;
18610;SDS011;9435;52.122;5.502;2023-03-29T10:35:29;20.25;;;10.88;;
18610;SDS011;9435;52.122;5.502;2023-03-29T10:37:58;23.20;;;11.63;;
18610;SDS011;9435;52.122;5.502;2023-03-29T10:40:30;26.80;;;11.90;;
18610;SDS011;9435;52.122;5.502;2023-03-29T10:42:59;20.92;;;10.95;;
18610;SDS011;9435;52.122;5.502;2023-03-29T10:45:38;23.05;;;12.02;;
18610;SDS011;9435;52.122;5.502;2023-03-29T10:48:05;22.73;;;12.32;;
18610;SDS011;9435;52.122;5.502;2023-03-29T10:50:37;25.27;;;12.77;;
18610;SDS011;9435;52.122;5.502;2023-03-29T10:53:05;24.35;;;12.57;;
18610;SDS011;9435;52.122;5.502;2023-03-29T10:55:42;24.90;;;12.90;;
18610;SDS011;9435;52.122;5.502;2023-03-29T10:58:18;23.33;;;12.98;;
18610;SDS011;9435;52.122;5.502;2023-03-29T11:00:56;23.48;;;13.05;;
18610;SDS011;9435;52.122;5.502;2023-03-29T11:06:17;23.73;;;12.77;;
18610;SDS011;9435;52.122;5.502;2023-03-29T11:08:52;23.20;;;13.23;;
18610;SDS011;9435;52.122;5.502;2023-03-29T11:14:20;23.27;;;13.07;;
18610;SDS011;9435;52.122;5.502;2023-03-29T11:16:56;19.85;;;12.18;;
18610;SDS011;9435;52.122;5.502;2023-03-29T11:19:46;22.90;;;13.38;;
18610;SDS011;9435;52.122;5.502;2023-03-29T11:22:22;24.15;;;13.82;;
18610;SDS011;9435;52.122;5.502;2023-03-29T11:25:02;23.33;;;13.13;;
18610;SDS011;9435;52.122;5.502;2023-03-29T11:27:42;24.42;;;13.90;;
18610;SDS011;9435;52.122;5.502;2023-03-29T11:30:17;22.08;;;13.57;;
18610;SDS011;9435;52.122;5.502;2023-03-29T11:32:53;20.88;;;12.85;;
18610;SDS011;9435;52.122;5.502;2023-03-29T11:35:36;23.23;;;12.85;;
18610;SDS011;9435;52.122;5.502;2023-03-29T11:38:15;22.27;;;11.98;;
18610;SDS011;9435;52.122;5.502;2023-03-29T11:40:50;19.20;;;11.77;;
18610;SDS011;9435;52.122;5.502;2023-03-29T11:43:24;20.20;;;12.10;;
18610;SDS011;9435;52.122;5.502;2023-03-29T11:45:55;20.00;;;11.30;;
18610;SDS011;9435;52.122;5.502;2023-03-29T11:48:30;19.33;;;11.80;;
18610;SDS011;9435;52.122;5.502;2023-03-29T11:51:01;19.80;;;11.48;;
18610;SDS011;9435;52.122;5.502;2023-03-29T11:53:38;21.25;;;11.48;;
18610;SDS011;9435;52.122;5.502;2023-03-29T11:56:12;21.15;;;12.15;;
18610;SDS011;9435;52.122;5.502;2023-03-29T11:58:43;17.25;;;11.00;;
18610;SDS011;9435;52.122;5.502;2023-03-29T12:01:14;19.23;;;10.98;;
18610;SDS011;9435;52.122;5.502;2023-03-29T12:03:48;19.88;;;11.02;;
18610;SDS011;9435;52.122;5.502;2023-03-29T12:06:19;20.42;;;12.35;;
18610;SDS011;9435;52.122;5.502;2023-03-29T12:08:49;20.17;;;12.18;;
18610;SDS011;9435;52.122;5.502;2023-03-29T12:11:22;20.02;;;12.40;;
18610;SDS011;9435;52.122;5.502;2023-03-29T12:13:56;25.85;;;12.90;;
18610;SDS011;9435;52.122;5.502;2023-03-29T12:16:29;20.60;;;12.98;;
18610;SDS011;9435;52.122;5.502;2023-03-29T12:19:03;22.55;;;12.90;;
18610;SDS011;9435;52.122;5.502;2023-03-29T12:21:32;22.75;;;12.27;;
18610;SDS011;9435;52.122;5.502;2023-03-29T12:24:01;20.02;;;12.10;;
18610;SDS011;9435;52.122;5.502;2023-03-29T12:26:33;23.20;;;12.52;;
18610;SDS011;9435;52.122;5.502;2023-03-29T12:29:19;23.13;;;13.02;;
18610;SDS011;9435;52.122;5.502;2023-03-29T12:32:07;21.77;;;13.55;;
18610;SDS011;9435;52.122;5.502;2023-03-29T12:34:54;23.95;;;14.05;;
18610;SDS011;9435;52.122;5.502;2023-03-29T12:37:32;28.00;;;15.13;;
18610;SDS011;9435;52.122;5.502;2023-03-29T12:40:10;27.05;;;15.75;;
18610;SDS011;9435;52.122;5.502;2023-03-29T12:42:45;28.98;;;16.27;;
18610;SDS011;9435;52.122;5.502;2023-03-29T12:45:16;25.10;;;15.50;;
18610;SDS011;9435;52.122;5.502;2023-03-29T12:47:46;26.63;;;15.60;;
18610;SDS011;9435;52.122;5.502;2023-03-29T12:50:21;28.33;;;16.95;;
18610;SDS011;9435;52.122;5.502;2023-03-29T12:52:56;26.13;;;16.80;;
18610;SDS011;9435;52.122;5.502;2023-03-29T12:55:32;28.27;;;17.60;;
18610;SDS011;9435;52.122;5.502;2023-03-29T12:58:21;29.77;;;17.55;;
18610;SDS011;9435;52.122;5.502;2023-03-29T13:01:02;30.23;;;16.08;;
18610;SDS011;9435;52.122;5.502;2023-03-29T13:03:34;29.98;;;15.85;;
18610;SDS011;9435;52.122;5.502;2023-03-29T13:06:23;29.02;;;15.43;;
18610;SDS011;9435;52.122;5.502;2023-03-29T13:08:56;25.38;;;14.57;;
18610;SDS011;9435;52.122;5.502;2023-03-29T13:11:25;25.05;;;14.77;;
18610;SDS011;9435;52.122;5.502;2023-03-29T13:13:58;26.65;;;14.68;;
18610;SDS011;9435;52.122;5.502;2023-03-29T13:16:28;24.02;;;14.85;;
18610;SDS011;9435;52.122;5.502;2023-03-29T13:19:01;30.02;;;15.68;;
18610;SDS011;9435;52.122;5.502;2023-03-29T13:21:39;24.77;;;15.50;;
18610;SDS011;9435;52.122;5.502;2023-03-29T13:24:20;25.05;;;15.40;;
18610;SDS011;9435;52.122;5.502;2023-03-29T13:27:08;27.10;;;15.90;;
18610;SDS011;9435;52.122;5.502;2023-03-29T13:29:49;28.25;;;16.30;;
18610;SDS011;9435;52.122;5.502;2023-03-29T13:32:35;27.60;;;15.85;;
18610;SDS011;9435;52.122;5.502;2023-03-29T13:35:18;29.85;;;17.02;;
18610;SDS011;9435;52.122;5.502;2023-03-29T13:37:56;28.75;;;16.63;;
18610;SDS011;9435;52.122;5.502;2023-03-29T13:40:41;26.17;;;16.48;;
18610;SDS011;9435;52.122;5.502;2023-03-29T13:43:18;29.45;;;17.58;;
18610;SDS011;9435;52.122;5.502;2023-03-29T13:45:50;26.15;;;16.65;;
18610;SDS011;9435;52.122;5.502;2023-03-29T13:48:53;28.20;;;16.60;;
18610;SDS011;9435;52.122;5.502;2023-03-29T13:51:33;26.73;;;16.35;;
18610;SDS011;9435;52.122;5.502;2023-03-29T13:54:10;25.33;;;16.60;;
18610;SDS011;9435;52.122;5.502;2023-03-29T13:56:50;26.92;;;16.65;;
18610;SDS011;9435;52.122;5.502;2023-03-29T13:59:24;27.02;;;16.50;;
18610;SDS011;9435;52.122;5.502;2023-03-29T14:01:56;25.13;;;16.20;;
18610;SDS011;9435;52.122;5.502;2023-03-29T14:04:27;28.73;;;17.38;;
18610;SDS011;9435;52.122;5.502;2023-03-29T14:06:58;23.98;;;16.35;;
18610;SDS011;9435;52.122;5.502;2023-03-29T14:09:29;27.25;;;16.02;;
18610;SDS011;9435;52.122;5.502;2023-03-29T14:11:58;27.85;;;16.02;;
18610;SDS011;9435;52.122;5.502;2023-03-29T14:14:28;25.98;;;16.23;;
18610;SDS011;9435;52.122;5.502;2023-03-29T14:16:57;23.90;;;15.23;;
18610;SDS011;9435;52.122;5.502;2023-03-29T14:19:28;24.08;;;15.70;;
18610;SDS011;9435;52.122;5.502;2023-03-29T14:21:57;24.77;;;15.70;;
18610;SDS011;9435;52.122;5.502;2023-03-29T14:24:26;23.48;;;15.40;;
18610;SDS011;9435;52.122;5.502;2023-03-29T14:27:03;24.35;;;15.05;;
18610;SDS011;9435;52.122;5.502;2023-03-29T14:29:32;25.98;;;14.95;;
18610;SDS011;9435;52.122;5.502;2023-03-29T14:32:09;22.00;;;14.00;;
18610;SDS011;9435;52.122;5.502;2023-03-29T14:34:37;20.95;;;14.35;;
18610;SDS011;9435;52.122;5.502;2023-03-29T14:37:05;22.90;;;13.63;;
18610;SDS011;9435;52.122;5.502;2023-03-29T14:39:36;21.52;;;13.60;;
18610;SDS011;9435;52.122;5.502;2023-03-29T14:42:07;21.02;;;14.15;;
18610;SDS011;9435;52.122;5.502;2023-03-29T14:44:39;24.52;;;13.40;;
18610;SDS011;9435;52.122;5.502;2023-03-29T14:47:08;20.73;;;13.27;;
18610;SDS011;9435;52.122;5.502;2023-03-29T14:49:41;24.00;;;12.88;;
18610;SDS011;9435;52.122;5.502;2023-03-29T14:52:09;19.42;;;12.48;;
18610;SDS011;9435;52.122;5.502;2023-03-29T14:54:39;21.70;;;12.63;;
18610;SDS011;9435;52.122;5.502;2023-03-29T14:57:11;20.58;;;11.80;;
18610;SDS011;9435;52.122;5.502;2023-03-29T14:59:42;22.90;;;12.68;;
18610;SDS011;9435;52.122;5.502;2023-03-29T15:02:21;17.17;;;11.48;;
18610;SDS011;9435;52.122;5.502;2023-03-29T15:04:53;17.40;;;11.52;;
18610;SDS011;9435;52.122;5.502;2023-03-29T15:07:22;20.30;;;12.35;;
18610;SDS011;9435;52.122;5.502;2023-03-29T15:09:50;17.85;;;11.70;;
18610;SDS011;9435;52.122;5.502;2023-03-29T15:12:18;17.77;;;11.70;;
18610;SDS011;9435;52.122;5.502;2023-03-29T15:14:46;18.55;;;11.20;;
18610;SDS011;9435;52.122;5.502;2023-03-29T15:17:21;16.63;;;11.25;;
18610;SDS011;9435;52.122;5.502;2023-03-29T15:19:58;15.95;;;11.05;;